Agios Georgios I — SX9857 — position and weather

sailwx.info

Track history (hours):
 
Tides and Currents Weather Stations Pressure Air Temp Water Temp Dewpoint Dewpoint Depression Visibility Wind Speed Wind Dir Waves Ship Positions

Agios Georgios I

Last reported at 2014-Oct-29 22:29 UTC. Time now 2014-Oct-30 13:04 UTC.
Position N 37°52' E 025°31'.

Length 59 m; draft 5 m.

Type: Ship (hazmat cat B). MMSI: 239912000.

Date/timePositionNaut miles runAvg speedWind from/ knotsBaromVisibWave heightAir tempDewpointWater temp
2014-Oct-29 22:29N 37°52' E 025°31'7 7.7
2014-Oct-29 21:33N 37°45' E 025°27'7 7.4
2014-Oct-29 20:33N 37°39' E 025°21'7 7.3
2014-Oct-29 19:33N 37°33' E 025°16'7 7.3
2014-Oct-29 18:33N 37°27' E 025°11'8 8.4
2014-Oct-29 17:33N 37°19' E 025°09'9 8.5
2014-Oct-29 16:33N 37°10' E 025°08'5 2.4
2014-Oct-29 14:25N 37°05' E 025°09'0 0.0
2014-Oct-29 13:09N 37°05' E 025°09'0 0.0
2014-Oct-29 12:06N 37°05' E 025°09'0 0.0
2014-Oct-29 11:09N 37°05' E 025°09'1 0.2
2014-Oct-29 08:30N 37°05' E 025°09'0 0.3
2014-Oct-29 07:11N 37°05' E 025°09'1 0.1
2014-Oct-28 17:28N 37°05' E 025°08'7 8.0
2014-Oct-28 16:33N 37°10' E 025°15'7 7.2
2014-Oct-28 15:33N 37°06' E 025°22'0 0.0
2014-Oct-28 14:33N 37°06' E 025°22'0 0.0
2014-Oct-28 13:33N 37°06' E 025°22'0 0.0
2014-Oct-28 12:33N 37°06' E 025°22'0 0.0
2014-Oct-28 11:33N 37°06' E 025°22'0 0.0
2014-Oct-28 10:33N 37°06' E 025°22'0 0.0
2014-Oct-28 09:33N 37°06' E 025°22'0 0.0
2014-Oct-28 08:33N 37°06' E 025°22'0 0.0
2014-Oct-28 07:33N 37°06' E 025°22'0 0.0
2014-Oct-28 06:33N 37°06' E 025°22'0 0.0
2014-Oct-28 05:34N 37°06' E 025°22'0 0.0
2014-Oct-28 04:33N 37°06' E 025°22'0 0.0
2014-Oct-28 03:33N 37°06' E 025°22'0 0.0
2014-Oct-28 02:33N 37°06' E 025°22'0 0.0
2014-Oct-28 01:33N 37°06' E 025°22'0 0.0
2014-Oct-28 00:33N 37°06' E 025°22'0 0.0
2014-Oct-27 23:32N 37°06' E 025°22'0 0.0
2014-Oct-27 22:33N 37°06' E 025°22'0 0.0
2014-Oct-27 21:33N 37°06' E 025°22'0 0.0
2014-Oct-27 20:33N 37°06' E 025°22'0 0.0
2014-Oct-27 19:33N 37°06' E 025°22'0 0.0
2014-Oct-27 18:33N 37°06' E 025°22'0 0.0
2014-Oct-27 17:33N 37°06' E 025°22'0 0.0
2014-Oct-27 16:33N 37°06' E 025°22'1 0.6
2014-Oct-27 15:33N 37°06' E 025°22'1 0.6
2014-Oct-27 14:33N 37°06' E 025°22'0 0.0
2014-Oct-27 13:33N 37°06' E 025°22'2 1.6
2014-Oct-27 12:33N 37°08' E 025°21'10 9.7
2014-Oct-27 11:33N 37°17' E 025°19'10 9.7
2014-Oct-27 10:33N 37°27' E 025°18'2 1.8
2014-Oct-27 09:33N 37°28' E 025°20'0 0.0
2014-Oct-27 08:33N 37°28' E 025°20'0 0.0
2014-Oct-27 07:33N 37°28' E 025°20'0 0.0
2014-Oct-27 06:33N 37°28' E 025°20'1 0.8
2014-Oct-27 05:33N 37°27' E 025°19'6 6.5
2014-Oct-27 04:33N 37°30' E 025°11'3 2.7
2014-Oct-27 03:33N 37°32' E 025°09'0 0.0
2014-Oct-27 02:33N 37°32' E 025°09'0 0.0
2014-Oct-27 01:33N 37°32' E 025°09'0 0.0
2014-Oct-27 00:33N 37°32' E 025°09'0 0.0
2014-Oct-26 23:33N 37°32' E 025°09'0 0.0
2014-Oct-26 22:33N 37°32' E 025°09'0 0.0
2014-Oct-26 21:32N 37°32' E 025°09'0 0.0
2014-Oct-26 20:33N 37°32' E 025°09'0 0.0
2014-Oct-26 19:33N 37°32' E 025°09'0 0.0
2014-Oct-26 18:33N 37°32' E 025°09'0 0.0
2014-Oct-26 17:33N 37°32' E 025°09'0 0.0
2014-Oct-26 16:33N 37°32' E 025°09'0 0.0
2014-Oct-26 15:33N 37°32' E 025°09'0 0.0
2014-Oct-26 14:33N 37°32' E 025°09'0 0.0
2014-Oct-26 13:32N 37°32' E 025°09'2 2.4
2014-Oct-26 12:33N 37°31' E 025°07'8 7.7
2014-Oct-26 11:33N 37°27' E 024°59'2 1.9
2014-Oct-26 10:28N 37°26' E 024°56'0 0.0
2014-Oct-26 09:32N 37°26' E 024°56'0 0.0
2014-Oct-26 08:23N 37°26' E 024°56'0 0.0
2014-Oct-26 07:31N 37°26' E 024°56'0 0.0
2014-Oct-26 06:32N 37°26' E 024°56'0 0.0
2014-Oct-26 05:24N 37°26' E 024°56'0 0.0
2014-Oct-26 04:32N 37°26' E 024°56'0 0.2
2014-Oct-26 03:26N 37°26' E 024°56'5 5.8
2014-Oct-26 02:33N 37°31' E 024°57'6 6.3
2014-Oct-26 01:33N 37°32' E 024°49'7 6.9
2014-Oct-26 00:33N 37°31' E 024°41'7 6.7
2014-Oct-25 23:33N 37°31' E 024°32'7 6.8
2014-Oct-25 22:33N 37°31' E 024°24'8 7.2
2014-Oct-25 21:30N 37°31' E 024°14'7 7.0
2014-Oct-25 20:33N 37°33' E 024°07'16 7.7
2014-Oct-25 18:27N 37°38' E 023°47'7 8.0
2014-Oct-25 17:33N 37°43' E 023°41'9 8.9
2014-Oct-25 16:33N 37°51' E 023°36'6 6.1
2014-Oct-25 15:33N 37°57' E 023°35'0 0.0
2014-Oct-25 14:33N 37°57' E 023°35'0 0.0
2014-Oct-25 13:33N 37°57' E 023°35'0 0.0
2014-Oct-25 12:33N 37°57' E 023°35'0 0.0
2014-Oct-25 11:33N 37°57' E 023°35'0 0.0
2014-Oct-25 10:33N 37°57' E 023°35'0 0.0
2014-Oct-25 09:33N 37°57' E 023°35'0 0.0
2014-Oct-25 08:33N 37°57' E 023°35'0 0.0
2014-Oct-25 07:33N 37°57' E 023°35'0 0.0
2014-Oct-25 06:33N 37°57' E 023°35'0 0.0
2014-Oct-25 05:33N 37°57' E 023°35'0 0.0
2014-Oct-25 04:33N 37°57' E 023°35'0 0.0
2014-Oct-25 03:33N 37°57' E 023°35'0 0.0
2014-Oct-25 02:33N 37°57' E 023°35'0 0.0
2014-Oct-25 01:33N 37°57' E 023°35'0 0.0
2014-Oct-25 00:33N 37°57' E 023°35'0 0.0
2014-Oct-24 23:33N 37°57' E 023°35'0 0.0
2014-Oct-24 22:33N 37°57' E 023°35'0 0.0
2014-Oct-24 21:33N 37°57' E 023°35'0 0.0
2014-Oct-24 20:33N 37°57' E 023°35'0 0.0
2014-Oct-24 19:33N 37°57' E 023°35'0 0.0
2014-Oct-24 18:33N 37°57' E 023°35'0 0.0
2014-Oct-24 17:33N 37°57' E 023°35'0 0.0
2014-Oct-24 16:33N 37°57' E 023°35'0 0.0
2014-Oct-24 15:33N 37°57' E 023°35'0 0.0
2014-Oct-24 14:33N 37°57' E 023°35'0 0.0
2014-Oct-24 13:33N 37°57' E 023°35'0 0.0
2014-Oct-24 12:33N 37°57' E 023°35'0 0.0
2014-Oct-24 11:33N 37°57' E 023°35'0 0.0
2014-Oct-24 10:33N 37°57' E 023°35'0 0.0
2014-Oct-24 09:33N 37°57' E 023°35'0 0.1
2014-Oct-24 08:33N 37°57' E 023°35'0 0.0
2014-Oct-24 07:33N 37°57' E 023°35'0 0.0
2014-Oct-24 06:33N 37°57' E 023°35'7 6.7
2014-Oct-24 05:33N 37°51' E 023°39'9 9.1
2014-Oct-24 04:33N 37°43' E 023°44'12 8.3
2014-Oct-24 03:09N 37°37' E 023°56'22 8.6
2014-Oct-24 00:32N 37°30' E 024°23'10 9.1
2014-Oct-23 23:26N 37°31' E 024°36'8 8.9
2014-Oct-23 22:33N 37°32' E 024°46'10 9.0
2014-Oct-23 21:24N 37°31' E 024°59'7 8.4
2014-Oct-23 20:33N 37°31' E 025°08'8 7.7
2014-Oct-23 19:33N 37°31' E 025°17'7 7.4
2014-Oct-23 18:33N 37°33' E 025°26'8 7.5
2014-Oct-23 17:33N 37°35' E 025°35'7 7.0
2014-Oct-23 16:33N 37°36' E 025°44'9 6.4
2014-Oct-23 15:13N 37°38' E 025°55'4 6.2
2014-Oct-23 14:33N 37°38' E 025°60'  
Track history (hours):
 
Tides and Currents Weather Stations Pressure Air Temp Water Temp Dewpoint Dewpoint Depression Visibility Wind Speed Wind Dir Waves Ship Positions

Agios Georgios I

Last reported at 2014-Oct-29 22:29 UTC. Time now 2014-Oct-30 13:04 UTC.
Position N 37°52' E 025°31'.

Length 59 m; draft 5 m.

Type: Ship (hazmat cat B). MMSI: 239912000.

Date/timePositionNaut miles runAvg speedWind from/ knotsBaromVisibWave heightAir tempDewpointWater temp
2014-Oct-29 22:29N 37°52' E 025°31'7 7.7
2014-Oct-29 21:33N 37°45' E 025°27'7 7.4
2014-Oct-29 20:33N 37°39' E 025°21'7 7.3
2014-Oct-29 19:33N 37°33' E 025°16'7 7.3
2014-Oct-29 18:33N 37°27' E 025°11'8 8.4
2014-Oct-29 17:33N 37°19' E 025°09'9 8.5
2014-Oct-29 16:33N 37°10' E 025°08'5 2.4
2014-Oct-29 14:25N 37°05' E 025°09'0 0.0
2014-Oct-29 13:09N 37°05' E 025°09'0 0.0
2014-Oct-29 12:06N 37°05' E 025°09'0 0.0
2014-Oct-29 11:09N 37°05' E 025°09'1 0.2
2014-Oct-29 08:30N 37°05' E 025°09'0 0.3
2014-Oct-29 07:11N 37°05' E 025°09'1 0.1
2014-Oct-28 17:28N 37°05' E 025°08'7 8.0
2014-Oct-28 16:33N 37°10' E 025°15'7 7.2
2014-Oct-28 15:33N 37°06' E 025°22'0 0.0
2014-Oct-28 14:33N 37°06' E 025°22'0 0.0
2014-Oct-28 13:33N 37°06' E 025°22'0 0.0
2014-Oct-28 12:33N 37°06' E 025°22'0 0.0
2014-Oct-28 11:33N 37°06' E 025°22'0 0.0
2014-Oct-28 10:33N 37°06' E 025°22'0 0.0
2014-Oct-28 09:33N 37°06' E 025°22'0 0.0
2014-Oct-28 08:33N 37°06' E 025°22'0 0.0
2014-Oct-28 07:33N 37°06' E 025°22'0 0.0
2014-Oct-28 06:33N 37°06' E 025°22'0 0.0
2014-Oct-28 05:34N 37°06' E 025°22'0 0.0
2014-Oct-28 04:33N 37°06' E 025°22'0 0.0
2014-Oct-28 03:33N 37°06' E 025°22'0 0.0
2014-Oct-28 02:33N 37°06' E 025°22'0 0.0
2014-Oct-28 01:33N 37°06' E 025°22'0 0.0
2014-Oct-28 00:33N 37°06' E 025°22'0 0.0
2014-Oct-27 23:32N 37°06' E 025°22'0 0.0
2014-Oct-27 22:33N 37°06' E 025°22'0 0.0
2014-Oct-27 21:33N 37°06' E 025°22'0 0.0
2014-Oct-27 20:33N 37°06' E 025°22'0 0.0
2014-Oct-27 19:33N 37°06' E 025°22'0 0.0
2014-Oct-27 18:33N 37°06' E 025°22'0 0.0
2014-Oct-27 17:33N 37°06' E 025°22'0 0.0
2014-Oct-27 16:33N 37°06' E 025°22'1 0.6
2014-Oct-27 15:33N 37°06' E 025°22'1 0.6
2014-Oct-27 14:33N 37°06' E 025°22'0 0.0
2014-Oct-27 13:33N 37°06' E 025°22'2 1.6
2014-Oct-27 12:33N 37°08' E 025°21'10 9.7
2014-Oct-27 11:33N 37°17' E 025°19'10 9.7
2014-Oct-27 10:33N 37°27' E 025°18'2 1.8
2014-Oct-27 09:33N 37°28' E 025°20'0 0.0
2014-Oct-27 08:33N 37°28' E 025°20'0 0.0
2014-Oct-27 07:33N 37°28' E 025°20'0 0.0
2014-Oct-27 06:33N 37°28' E 025°20'1 0.8
2014-Oct-27 05:33N 37°27' E 025°19'6 6.5
2014-Oct-27 04:33N 37°30' E 025°11'3 2.7
2014-Oct-27 03:33N 37°32' E 025°09'0 0.0
2014-Oct-27 02:33N 37°32' E 025°09'0 0.0
2014-Oct-27 01:33N 37°32' E 025°09'0 0.0
2014-Oct-27 00:33N 37°32' E 025°09'0 0.0
2014-Oct-26 23:33N 37°32' E 025°09'0 0.0
2014-Oct-26 22:33N 37°32' E 025°09'0 0.0
2014-Oct-26 21:32N 37°32' E 025°09'0 0.0
2014-Oct-26 20:33N 37°32' E 025°09'0 0.0
2014-Oct-26 19:33N 37°32' E 025°09'0 0.0
2014-Oct-26 18:33N 37°32' E 025°09'0 0.0
2014-Oct-26 17:33N 37°32' E 025°09'0 0.0
2014-Oct-26 16:33N 37°32' E 025°09'0 0.0
2014-Oct-26 15:33N 37°32' E 025°09'0 0.0
2014-Oct-26 14:33N 37°32' E 025°09'0 0.0
2014-Oct-26 13:32N 37°32' E 025°09'2 2.4
2014-Oct-26 12:33N 37°31' E 025°07'8 7.7
2014-Oct-26 11:33N 37°27' E 024°59'2 1.9
2014-Oct-26 10:28N 37°26' E 024°56'0 0.0
2014-Oct-26 09:32N 37°26' E 024°56'0 0.0
2014-Oct-26 08:23N 37°26' E 024°56'0 0.0
2014-Oct-26 07:31N 37°26' E 024°56'0 0.0
2014-Oct-26 06:32N 37°26' E 024°56'0 0.0
2014-Oct-26 05:24N 37°26' E 024°56'0 0.0
2014-Oct-26 04:32N 37°26' E 024°56'0 0.2
2014-Oct-26 03:26N 37°26' E 024°56'5 5.8
2014-Oct-26 02:33N 37°31' E 024°57'6 6.3
2014-Oct-26 01:33N 37°32' E 024°49'7 6.9
2014-Oct-26 00:33N 37°31' E 024°41'7 6.7
2014-Oct-25 23:33N 37°31' E 024°32'7 6.8
2014-Oct-25 22:33N 37°31' E 024°24'8 7.2
2014-Oct-25 21:30N 37°31' E 024°14'7 7.0
2014-Oct-25 20:33N 37°33' E 024°07'16 7.7
2014-Oct-25 18:27N 37°38' E 023°47'7 8.0
2014-Oct-25 17:33N 37°43' E 023°41'9 8.9
2014-Oct-25 16:33N 37°51' E 023°36'6 6.1
2014-Oct-25 15:33N 37°57' E 023°35'0 0.0
2014-Oct-25 14:33N 37°57' E 023°35'0 0.0
2014-Oct-25 13:33N 37°57' E 023°35'0 0.0
2014-Oct-25 12:33N 37°57' E 023°35'0 0.0
2014-Oct-25 11:33N 37°57' E 023°35'0 0.0
2014-Oct-25 10:33N 37°57' E 023°35'0 0.0
2014-Oct-25 09:33N 37°57' E 023°35'0 0.0
2014-Oct-25 08:33N 37°57' E 023°35'0 0.0
2014-Oct-25 07:33N 37°57' E 023°35'0 0.0
2014-Oct-25 06:33N 37°57' E 023°35'0 0.0
2014-Oct-25 05:33N 37°57' E 023°35'0 0.0
2014-Oct-25 04:33N 37°57' E 023°35'0 0.0
2014-Oct-25 03:33N 37°57' E 023°35'0 0.0
2014-Oct-25 02:33N 37°57' E 023°35'0 0.0
2014-Oct-25 01:33N 37°57' E 023°35'0 0.0
2014-Oct-25 00:33N 37°57' E 023°35'0 0.0
2014-Oct-24 23:33N 37°57' E 023°35'0 0.0
2014-Oct-24 22:33N 37°57' E 023°35'0 0.0
2014-Oct-24 21:33N 37°57' E 023°35'0 0.0
2014-Oct-24 20:33N 37°57' E 023°35'0 0.0
2014-Oct-24 19:33N 37°57' E 023°35'0 0.0
2014-Oct-24 18:33N 37°57' E 023°35'0 0.0
2014-Oct-24 17:33N 37°57' E 023°35'0 0.0
2014-Oct-24 16:33N 37°57' E 023°35'0 0.0
2014-Oct-24 15:33N 37°57' E 023°35'0 0.0
2014-Oct-24 14:33N 37°57' E 023°35'0 0.0
2014-Oct-24 13:33N 37°57' E 023°35'0 0.0
2014-Oct-24 12:33N 37°57' E 023°35'0 0.0
2014-Oct-24 11:33N 37°57' E 023°35'0 0.0
2014-Oct-24 10:33N 37°57' E 023°35'0 0.0
2014-Oct-24 09:33N 37°57' E 023°35'0 0.1
2014-Oct-24 08:33N 37°57' E 023°35'0 0.0
2014-Oct-24 07:33N 37°57' E 023°35'0 0.0
2014-Oct-24 06:33N 37°57' E 023°35'7 6.7
2014-Oct-24 05:33N 37°51' E 023°39'9 9.1
2014-Oct-24 04:33N 37°43' E 023°44'12 8.3
2014-Oct-24 03:09N 37°37' E 023°56'22 8.6
2014-Oct-24 00:32N 37°30' E 024°23'10 9.1
2014-Oct-23 23:26N 37°31' E 024°36'8 8.9
2014-Oct-23 22:33N 37°32' E 024°46'10 9.0
2014-Oct-23 21:24N 37°31' E 024°59'7 8.4
2014-Oct-23 20:33N 37°31' E 025°08'8 7.7
2014-Oct-23 19:33N 37°31' E 025°17'7 7.4
2014-Oct-23 18:33N 37°33' E 025°26'8 7.5
2014-Oct-23 17:33N 37°35' E 025°35'7 7.0
2014-Oct-23 16:33N 37°36' E 025°44'9 6.4
2014-Oct-23 15:13N 37°38' E 025°55'4 6.2
2014-Oct-23 14:33N 37°38' E 025°60'  

Dump ship's entire track history